createdAt,value
2018-12-19T00:02:30.857Z,-1.20
2018-12-19T00:05:37.116Z,-1.10
2018-12-19T00:08:43.307Z,-1.00
2018-12-19T00:11:49.554Z,-1.00
2018-12-19T00:14:55.876Z,-1.00
2018-12-19T00:18:02.214Z,-1.10
2018-12-19T00:21:08.469Z,-1.10
2018-12-19T00:24:14.681Z,-1.10
2018-12-19T00:27:21.395Z,-1.20
2018-12-19T00:30:27.647Z,-1.40
2018-12-19T00:33:34.235Z,-1.40
2018-12-19T00:36:40.610Z,-1.50
2018-12-19T00:39:46.837Z,-1.30
2018-12-19T00:42:53.083Z,-1.30
2018-12-19T00:45:59.323Z,-1.20
2018-12-19T00:49:05.491Z,-1.20
2018-12-19T00:52:11.838Z,-1.10
2018-12-19T00:55:18.026Z,-1.00
2018-12-19T00:58:24.273Z,-1.00
2018-12-19T01:01:30.511Z,-1.10
2018-12-19T01:04:36.780Z,-1.10
2018-12-19T01:07:43.097Z,-1.10
2018-12-19T01:10:49.333Z,-1.10
2018-12-19T01:13:55.591Z,-1.20
2018-12-19T01:17:01.808Z,-1.20
2018-12-19T01:20:08.077Z,-1.30
2018-12-19T01:23:14.333Z,-1.30
2018-12-19T01:26:21.579Z,-1.30
2018-12-19T01:29:27.972Z,-1.20
2018-12-19T01:32:34.220Z,-1.20
2018-12-19T01:35:40.885Z,-1.20
2018-12-19T01:38:47.373Z,-1.20
2018-12-19T01:41:53.642Z,-1.10
2018-12-19T01:44:59.859Z,-0.90
2018-12-19T01:48:06.349Z,-0.80
2018-12-19T01:51:12.511Z,-0.70
2018-12-19T01:54:19.576Z,-0.80
2018-12-19T01:57:25.726Z,-0.70
2018-12-19T02:00:32.573Z,-0.70
2018-12-19T02:03:38.799Z,-0.60
2018-12-19T02:06:45.181Z,-0.60
2018-12-19T02:09:51.648Z,-0.60
2018-12-19T02:12:58.037Z,-0.60
2018-12-19T02:16:04.302Z,-0.70
2018-12-19T02:19:10.570Z,-0.70
2018-12-19T02:22:16.738Z,-0.80
2018-12-19T02:25:23.088Z,-0.90
2018-12-19T02:28:29.477Z,-0.90
2018-12-19T02:31:35.925Z,-0.70
2018-12-19T02:34:42.881Z,-0.60
2018-12-19T02:37:49.017Z,-0.60
2018-12-19T02:40:55.277Z,-0.50
2018-12-19T02:44:01.569Z,-0.50
2018-12-19T02:47:07.845Z,-0.50
2018-12-19T02:50:15.307Z,-0.40
2018-12-19T02:53:21.465Z,-0.40
2018-12-19T02:56:27.737Z,-0.40
2018-12-19T02:59:33.875Z,-0.20
2018-12-19T03:02:40.163Z,0.10
2018-12-19T03:05:46.349Z,0.30
2018-12-19T03:08:52.558Z,0.70
2018-12-19T03:11:58.747Z,1.30
2018-12-19T03:15:05.435Z,1.40
2018-12-19T03:18:11.590Z,1.60
2018-12-19T03:21:18.404Z,1.80
2018-12-19T03:24:24.597Z,2.10
2018-12-19T03:27:30.858Z,2.20
2018-12-19T03:30:37.062Z,2.30
2018-12-19T03:33:44.606Z,2.40
2018-12-19T03:36:50.877Z,2.30
2018-12-19T03:39:57.200Z,2.30
2018-12-19T03:43:03.511Z,2.30
2018-12-19T03:46:10.013Z,2.40
2018-12-19T03:49:17.370Z,2.30
2018-12-19T03:52:23.804Z,2.20
2018-12-19T03:55:30.222Z,2.40
2018-12-19T03:58:36.404Z,2.50
2018-12-19T04:01:42.594Z,2.50
2018-12-19T04:04:49.888Z,2.40
2018-12-19T04:07:56.161Z,2.50
2018-12-19T04:11:02.509Z,2.60
2018-12-19T04:14:08.672Z,2.70
2018-12-19T04:17:14.831Z,2.70
2018-12-19T04:20:21.680Z,2.80
2018-12-19T04:23:27.870Z,2.90
2018-12-19T04:26:34.147Z,2.80
2018-12-19T04:29:40.715Z,2.80
2018-12-19T04:32:47.230Z,2.60
2018-12-19T04:35:53.823Z,2.60
2018-12-19T04:39:00.178Z,2.60
2018-12-19T04:42:06.431Z,2.60
2018-12-19T04:45:12.655Z,2.70
2018-12-19T04:48:19.552Z,2.70
2018-12-19T04:51:26.024Z,2.60
2018-12-19T04:54:32.257Z,2.60
2018-12-19T04:57:38.453Z,2.60
2018-12-19T05:00:44.678Z,2.60
2018-12-19T05:03:51.078Z,2.70
2018-12-19T05:06:57.355Z,2.70
2018-12-19T05:10:03.943Z,2.70
2018-12-19T05:13:10.076Z,2.70
2018-12-19T05:16:16.239Z,2.80
2018-12-19T05:19:22.913Z,2.90
2018-12-19T05:22:29.219Z,2.90
2018-12-19T05:25:35.490Z,3.00
2018-12-19T05:28:41.733Z,3.00
2018-12-19T05:31:47.898Z,3.10
2018-12-19T05:34:55.365Z,3.10
2018-12-19T05:38:01.538Z,3.10
2018-12-19T05:41:07.692Z,3.20
2018-12-19T05:44:14.441Z,3.10
2018-12-19T05:47:21.007Z,3.10
2018-12-19T05:50:29.230Z,3.00
2018-12-19T05:53:35.438Z,3.00
2018-12-19T05:56:41.593Z,3.00
2018-12-19T05:59:48.511Z,3.00
2018-12-19T06:02:55.000Z,3.10
2018-12-19T06:06:01.199Z,3.10
2018-12-19T06:09:08.065Z,3.00
2018-12-19T06:12:14.253Z,3.10
2018-12-19T06:15:20.818Z,3.00
2018-12-19T06:18:27.033Z,2.90
2018-12-19T06:21:33.242Z,2.90
2018-12-19T06:24:39.410Z,3.10
2018-12-19T06:27:45.595Z,3.00
2018-12-19T06:30:51.741Z,3.10
2018-12-19T06:33:59.361Z,3.10
2018-12-19T06:37:05.833Z,3.10
2018-12-19T06:40:12.083Z,2.90
2018-12-19T06:43:18.204Z,2.80
2018-12-19T06:46:24.442Z,2.80
2018-12-19T06:49:30.729Z,2.90
2018-12-19T06:52:36.907Z,3.00
2018-12-19T06:55:43.079Z,3.10
2018-12-19T06:58:49.247Z,3.10
2018-12-19T07:01:55.450Z,3.10
2018-12-19T07:05:01.633Z,3.10
2018-12-19T07:08:07.956Z,3.20
2018-12-19T07:11:14.202Z,3.20
2018-12-19T07:14:21.098Z,3.10
2018-12-19T07:17:27.221Z,3.10
2018-12-19T07:20:33.267Z,3.10
2018-12-19T07:23:40.297Z,3.20
2018-12-19T07:26:46.810Z,3.20
2018-12-19T07:29:54.045Z,3.30
2018-12-19T07:33:00.219Z,3.30
2018-12-19T07:36:06.511Z,3.20
2018-12-19T07:39:13.007Z,3.30
2018-12-19T07:42:19.265Z,3.30
2018-12-19T07:45:26.401Z,3.40
2018-12-19T07:48:33.289Z,3.40
2018-12-19T07:51:40.190Z,3.30
2018-12-19T07:54:46.280Z,3.40
2018-12-19T07:57:52.852Z,3.40
2018-12-19T08:00:59.406Z,3.50
2018-12-19T08:04:06.033Z,3.60
2018-12-19T08:07:12.636Z,3.80
2018-12-19T08:10:18.903Z,3.80
2018-12-19T08:13:25.386Z,3.60
2018-12-19T08:16:31.763Z,3.60
2018-12-19T08:19:38.031Z,3.60
2018-12-19T08:22:44.305Z,3.50
2018-12-19T08:25:50.409Z,3.50
2018-12-19T08:28:56.619Z,3.40
2018-12-19T08:32:04.018Z,3.30
2018-12-19T08:35:10.344Z,3.20
2018-12-19T08:38:16.433Z,3.20
2018-12-19T08:41:22.795Z,3.20
2018-12-19T08:44:29.462Z,3.10
2018-12-19T08:47:36.298Z,3.00
2018-12-19T08:50:42.534Z,3.10
2018-12-19T08:53:48.769Z,3.00
2018-12-19T08:56:54.966Z,2.90
2018-12-19T09:00:01.235Z,3.00
2018-12-19T09:03:07.671Z,3.20
2018-12-19T09:06:14.054Z,3.20
2018-12-19T09:09:20.372Z,3.20
2018-12-19T09:12:26.807Z,3.40
2018-12-19T09:15:38.405Z,3.40
2018-12-19T09:18:44.802Z,3.50
2018-12-19T09:21:51.126Z,3.50
2018-12-19T09:24:57.584Z,3.60
2018-12-19T09:28:04.708Z,3.40
2018-12-19T09:31:11.710Z,3.50
2018-12-19T09:34:18.025Z,3.70
2018-12-19T09:37:24.364Z,3.70
2018-12-19T09:40:30.849Z,3.80
2018-12-19T09:43:37.224Z,3.60
2018-12-19T09:46:43.915Z,3.70
2018-12-19T09:49:50.311Z,3.70
2018-12-19T09:52:56.844Z,3.70
2018-12-19T09:56:03.078Z,3.80
2018-12-19T09:59:09.395Z,3.80
2018-12-19T10:02:16.169Z,3.80
2018-12-19T10:05:22.774Z,3.70
2018-12-19T10:08:29.330Z,3.70
2018-12-19T10:11:35.654Z,3.80
2018-12-19T10:14:41.963Z,3.80
2018-12-19T10:17:49.062Z,3.90
2018-12-19T10:20:55.240Z,3.90
2018-12-19T10:24:01.684Z,3.90
2018-12-19T10:27:07.916Z,4.00
2018-12-19T10:30:15.245Z,4.10
2018-12-19T10:33:22.543Z,4.00
2018-12-19T10:36:34.122Z,3.90
2018-12-19T10:39:40.332Z,4.00
2018-12-19T10:42:46.586Z,4.10
2018-12-19T10:45:53.639Z,4.10
2018-12-19T10:48:59.824Z,4.00
2018-12-19T10:52:05.957Z,4.10
2018-12-19T10:55:12.137Z,4.10
2018-12-19T10:58:18.278Z,4.00
2018-12-19T11:01:24.498Z,4.00
2018-12-19T11:04:31.240Z,4.00
2018-12-19T11:07:37.442Z,4.00
2018-12-19T11:10:45.119Z,4.00
2018-12-19T11:13:51.608Z,4.00
2018-12-19T11:16:58.146Z,4.00
2018-12-19T11:20:05.013Z,3.90
2018-12-19T11:23:11.400Z,3.90
2018-12-19T11:26:17.762Z,4.00
2018-12-19T11:29:24.245Z,4.00
2018-12-19T11:32:30.786Z,4.10
2018-12-19T11:35:37.016Z,4.10
2018-12-19T11:38:43.311Z,4.10
2018-12-19T11:41:49.801Z,4.10
2018-12-19T11:44:56.904Z,4.00
2018-12-19T11:48:04.084Z,4.00
2018-12-19T11:51:10.444Z,4.20
2018-12-19T11:54:16.705Z,4.20
2018-12-19T11:57:22.955Z,4.20
2018-12-19T12:00:29.422Z,4.20
2018-12-19T12:03:35.750Z,4.10
2018-12-19T12:06:41.996Z,4.10
2018-12-19T12:09:48.648Z,4.20
2018-12-19T12:12:54.975Z,4.30
2018-12-19T12:16:01.255Z,4.20
2018-12-19T12:19:08.181Z,4.10
2018-12-19T12:22:14.425Z,4.10
2018-12-19T12:25:20.657Z,4.20
2018-12-19T12:28:26.895Z,4.20
2018-12-19T12:31:33.096Z,4.10
2018-12-19T12:34:39.237Z,4.10
2018-12-19T12:37:45.480Z,4.10
2018-12-19T12:40:51.648Z,4.10
2018-12-19T12:43:57.843Z,4.10
2018-12-19T12:47:04.216Z,4.20
2018-12-19T12:50:10.454Z,4.10
2018-12-19T12:53:16.753Z,4.10
2018-12-19T12:56:23.072Z,4.20
2018-12-19T12:59:29.370Z,4.20
2018-12-19T13:02:35.821Z,4.10
2018-12-19T13:05:42.049Z,4.00
2018-12-19T13:08:48.653Z,4.00
2018-12-19T13:11:58.782Z,4.10
2018-12-19T13:15:03.399Z,4.10
2018-12-19T13:18:09.723Z,4.00
2018-12-19T13:21:16.101Z,3.90
2018-12-19T13:24:22.601Z,3.80
2018-12-19T13:27:29.114Z,3.80
2018-12-19T13:30:35.244Z,3.90
2018-12-19T13:33:41.618Z,3.80
2018-12-19T13:36:47.874Z,3.90
2018-12-19T13:39:54.271Z,3.90
2018-12-19T13:43:00.571Z,4.00
2018-12-19T13:46:06.815Z,4.10
2018-12-19T13:49:12.998Z,4.10
2018-12-19T13:52:19.158Z,4.20
2018-12-19T13:55:25.356Z,4.20
2018-12-19T13:58:31.617Z,4.30
2018-12-19T14:01:37.955Z,4.30
2018-12-19T14:04:45.515Z,4.20
2018-12-19T14:07:52.459Z,4.20
2018-12-19T14:10:59.000Z,4.30
2018-12-19T14:14:05.305Z,4.40
2018-12-19T14:17:11.698Z,4.40
2018-12-19T14:20:17.873Z,4.30
2018-12-19T14:23:24.071Z,4.30
2018-12-19T14:26:30.525Z,4.20
2018-12-19T14:29:36.918Z,4.20
2018-12-19T14:32:43.255Z,4.10
2018-12-19T14:35:49.447Z,4.00
2018-12-19T14:38:55.666Z,3.90
2018-12-19T14:42:02.761Z,3.90
2018-12-19T14:45:09.915Z,3.90
2018-12-19T14:48:16.295Z,3.80
2018-12-19T14:51:22.646Z,3.80
2018-12-19T14:54:29.265Z,3.70
2018-12-19T14:57:36.782Z,3.60
2018-12-19T15:00:43.170Z,3.60
2018-12-19T15:03:49.508Z,3.50
2018-12-19T15:06:55.799Z,3.50
2018-12-19T15:10:02.113Z,3.70
2018-12-19T15:13:08.390Z,3.70
2018-12-19T15:16:16.642Z,3.80
2018-12-19T15:19:22.903Z,3.70
2018-12-19T15:22:29.649Z,3.80
2018-12-19T15:25:35.960Z,3.80
2018-12-19T15:28:42.293Z,3.80
2018-12-19T15:31:48.570Z,3.60
2018-12-19T15:34:54.702Z,3.40
2018-12-19T15:38:00.940Z,3.50
2018-12-19T15:41:07.134Z,3.50
2018-12-19T15:44:13.410Z,3.30
2018-12-19T15:47:19.572Z,3.30
2018-12-19T15:50:26.241Z,3.30
2018-12-19T15:53:32.460Z,3.40
2018-12-19T15:56:38.880Z,3.30
2018-12-19T15:59:46.266Z,3.20
2018-12-19T16:02:53.451Z,3.10
2018-12-19T16:05:59.693Z,3.10
2018-12-19T16:09:07.526Z,3.20
2018-12-19T16:12:13.796Z,3.30
2018-12-19T16:15:19.960Z,3.40
2018-12-19T16:18:26.086Z,3.30
2018-12-19T16:21:32.238Z,3.50
2018-12-19T16:24:38.665Z,3.60
2018-12-19T16:27:44.911Z,3.60
2018-12-19T16:30:51.144Z,3.60
2018-12-19T16:33:57.382Z,3.40
2018-12-19T16:37:03.646Z,3.40
2018-12-19T16:40:09.840Z,3.60
2018-12-19T16:43:16.019Z,3.80
2018-12-19T16:46:22.851Z,3.90
2018-12-19T16:49:29.275Z,3.90
2018-12-19T16:52:35.544Z,3.80
2018-12-19T16:55:41.704Z,3.70
2018-12-19T16:58:48.074Z,3.60
2018-12-19T17:01:54.893Z,3.60
2018-12-19T17:05:01.043Z,3.70
2018-12-19T17:08:07.101Z,3.90
2018-12-19T17:11:13.244Z,3.80
2018-12-19T17:14:19.945Z,3.90
2018-12-19T17:17:26.469Z,3.70
2018-12-19T17:20:33.353Z,3.70
2018-12-19T17:23:39.732Z,3.70
2018-12-19T17:26:45.973Z,3.60
2018-12-19T17:29:52.109Z,3.50
2018-12-19T17:32:58.311Z,3.40
2018-12-19T17:36:05.107Z,3.30
2018-12-19T17:39:11.405Z,3.30
2018-12-19T17:42:17.718Z,3.50
2018-12-19T17:45:24.201Z,3.50
2018-12-19T17:48:30.793Z,3.60
2018-12-19T17:51:37.152Z,3.60
2018-12-19T17:54:43.292Z,3.30
2018-12-19T17:57:49.358Z,3.20
2018-12-19T18:00:55.629Z,3.10
2018-12-19T18:04:01.872Z,3.20
2018-12-19T18:07:08.855Z,3.30
2018-12-19T18:10:14.968Z,3.30
2018-12-19T18:13:21.000Z,3.40
2018-12-19T18:16:27.215Z,3.40
2018-12-19T18:19:33.350Z,3.40
2018-12-19T18:22:39.407Z,3.40
2018-12-19T18:25:45.636Z,3.30
2018-12-19T18:28:51.855Z,3.30
2018-12-19T18:31:57.980Z,3.20
2018-12-19T18:35:04.460Z,3.30
2018-12-19T18:38:11.719Z,3.30
2018-12-19T18:41:17.803Z,3.30
2018-12-19T18:44:23.997Z,3.30
2018-12-19T18:47:30.094Z,3.30
2018-12-19T18:50:36.245Z,3.40
2018-12-19T18:53:43.161Z,3.40
2018-12-19T18:56:49.423Z,3.50
2018-12-19T18:59:55.749Z,3.70
2018-12-19T19:03:01.866Z,3.60
2018-12-19T19:06:08.487Z,3.50
2018-12-19T19:09:15.242Z,3.40
2018-12-19T19:12:21.642Z,3.50
2018-12-19T19:15:27.830Z,3.40
2018-12-19T19:18:33.990Z,3.30
2018-12-19T19:21:40.431Z,3.20
2018-12-19T19:24:47.231Z,3.20
2018-12-19T19:27:53.284Z,3.10
2018-12-19T19:30:59.308Z,2.90
2018-12-19T19:34:05.385Z,2.80
2018-12-19T19:37:11.388Z,2.80
2018-12-19T19:40:17.607Z,2.70
2018-12-19T19:43:26.613Z,2.70
2018-12-19T19:46:32.218Z,2.60
2018-12-19T19:49:38.523Z,2.50
2018-12-19T19:52:44.834Z,2.40
2018-12-19T19:55:51.197Z,2.10
2018-12-19T19:58:57.432Z,1.90
2018-12-19T20:02:03.874Z,1.80
2018-12-19T20:05:09.987Z,2.00
2018-12-19T20:08:16.407Z,2.00
2018-12-19T20:11:22.984Z,2.10
2018-12-19T20:14:29.926Z,2.00
2018-12-19T20:17:36.108Z,1.90
2018-12-19T20:20:42.601Z,1.90
2018-12-19T20:23:48.881Z,1.90
2018-12-19T20:26:55.112Z,1.90
2018-12-19T20:30:01.471Z,1.80
2018-12-19T20:33:07.802Z,1.80
2018-12-19T20:36:14.178Z,1.70
2018-12-19T20:39:20.612Z,1.70
2018-12-19T20:42:26.955Z,1.60
2018-12-19T20:45:33.261Z,1.40
2018-12-19T20:48:39.378Z,1.40
2018-12-19T20:51:45.807Z,1.40
2018-12-19T20:54:52.112Z,1.40
2018-12-19T20:57:58.679Z,1.40
2018-12-19T21:01:05.034Z,1.50
2018-12-19T21:04:11.180Z,1.20
2018-12-19T21:07:17.449Z,1.10
2018-12-19T21:10:24.501Z,1.00
2018-12-19T21:13:30.637Z,1.10
2018-12-19T21:16:41.979Z,1.30
2018-12-19T21:19:47.991Z,1.10
2018-12-19T21:22:54.116Z,0.90
2018-12-19T21:26:00.437Z,0.90
2018-12-19T21:29:08.070Z,0.90
2018-12-19T21:32:14.277Z,0.80
2018-12-19T21:35:20.506Z,0.80
2018-12-19T21:38:26.655Z,0.60
2018-12-19T21:41:33.125Z,0.50
2018-12-19T21:44:40.016Z,0.50
2018-12-19T21:47:46.235Z,0.50
2018-12-19T21:50:53.460Z,0.60
2018-12-19T21:53:59.762Z,0.60
2018-12-19T21:57:06.130Z,0.60
2018-12-19T22:00:21.838Z,0.60
2018-12-19T22:03:28.267Z,0.60
2018-12-19T22:06:34.499Z,0.70
2018-12-19T22:09:40.706Z,0.80
2018-12-19T22:12:47.537Z,1.10
2018-12-19T22:15:53.772Z,1.20
2018-12-19T22:19:00.430Z,1.20
2018-12-19T22:22:06.823Z,1.30
2018-12-19T22:25:13.202Z,1.30
2018-12-19T22:28:20.137Z,1.40
2018-12-19T22:31:26.512Z,1.60
2018-12-19T22:34:32.733Z,1.60
2018-12-19T22:37:38.920Z,1.60
2018-12-19T22:40:45.376Z,1.60
2018-12-19T22:43:51.724Z,1.60
2018-12-19T22:46:57.845Z,1.60
2018-12-19T22:50:05.090Z,1.70
2018-12-19T22:53:11.371Z,1.70
2018-12-19T22:56:17.623Z,1.90
2018-12-19T22:59:23.746Z,1.90
2018-12-19T23:02:35.435Z,2.00
2018-12-19T23:05:47.247Z,2.00
2018-12-19T23:08:54.444Z,2.00
2018-12-19T23:12:00.682Z,1.90
2018-12-19T23:15:06.833Z,1.90
2018-12-19T23:18:18.392Z,1.90
2018-12-19T23:21:25.000Z,1.90
2018-12-19T23:24:31.165Z,2.00
2018-12-19T23:27:37.478Z,2.10
2018-12-19T23:30:43.808Z,2.10
2018-12-19T23:33:50.293Z,2.10
2018-12-19T23:36:57.517Z,2.00
2018-12-19T23:40:04.075Z,2.00
2018-12-19T23:43:10.227Z,1.90
2018-12-19T23:46:16.494Z,2.10
2018-12-19T23:49:22.764Z,2.40
2018-12-19T23:52:29.901Z,2.50
2018-12-19T23:55:36.101Z,2.50
2018-12-19T23:58:42.403Z,2.50
